sensor_id;sensor_type;location;lat;lon;timestamp;pressure;altitude;pressure_sealevel;temperature
65738;BMP280;52478;51.844;6.582;2023-12-20T00:00:14;101169.25;;;21.67
65738;BMP280;52478;51.844;6.582;2023-12-20T00:02:41;101175.06;;;21.69
65738;BMP280;52478;51.844;6.582;2023-12-20T00:05:12;101189.78;;;21.70
65738;BMP280;52478;51.844;6.582;2023-12-20T00:07:39;101182.66;;;21.69
65738;BMP280;52478;51.844;6.582;2023-12-20T00:10:06;101179.88;;;21.69
65738;BMP280;52478;51.844;6.582;2023-12-20T00:12:33;101182.88;;;21.71
65738;BMP280;52478;51.844;6.582;2023-12-20T00:14:59;101189.50;;;21.68
65738;BMP280;52478;51.844;6.582;2023-12-20T00:17:26;101190.50;;;21.70
65738;BMP280;52478;51.844;6.582;2023-12-20T00:19:53;101189.25;;;21.71
65738;BMP280;52478;51.844;6.582;2023-12-20T00:22:19;101183.41;;;21.69
65738;BMP280;52478;51.844;6.582;2023-12-20T00:24:47;101192.03;;;21.71
65738;BMP280;52478;51.844;6.582;2023-12-20T00:27:13;101187.72;;;21.70
65738;BMP280;52478;51.844;6.582;2023-12-20T00:29:40;101190.28;;;21.68
65738;BMP280;52478;51.844;6.582;2023-12-20T00:32:08;101192.56;;;21.70
65738;BMP280;52478;51.844;6.582;2023-12-20T00:34:34;101186.44;;;21.71
65738;BMP280;52478;51.844;6.582;2023-12-20T00:37:01;101188.72;;;21.73
65738;BMP280;52478;51.844;6.582;2023-12-20T00:39:27;101187.72;;;21.70
65738;BMP280;52478;51.844;6.582;2023-12-20T00:41:55;101187.97;;;21.72
65738;BMP280;52478;51.844;6.582;2023-12-20T00:44:21;101187.97;;;21.72
65738;BMP280;52478;51.844;6.582;2023-12-20T00:46:48;101189.25;;;21.71
65738;BMP280;52478;51.844;6.582;2023-12-20T00:49:14;101187.97;;;21.72
65738;BMP280;52478;51.844;6.582;2023-12-20T00:51:41;101180.09;;;21.71
65738;BMP280;52478;51.844;6.582;2023-12-20T00:54:07;101192.78;;;21.72
65738;BMP280;52478;51.844;6.582;2023-12-20T00:56:34;101183.66;;;21.71
65738;BMP280;52478;51.844;6.582;2023-12-20T00:59:02;101189.25;;;21.71
65738;BMP280;52478;51.844;6.582;2023-12-20T01:01:28;101188.47;;;21.71
65738;BMP280;52478;51.844;6.582;2023-12-20T01:03:55;101193.28;;;21.70
65738;BMP280;52478;51.844;6.582;2023-12-20T01:06:21;101193.28;;;21.70
65738;BMP280;52478;51.844;6.582;2023-12-20T01:08:48;101185.19;;;21.67
65738;BMP280;52478;51.844;6.582;2023-12-20T01:11:14;101190.81;;;21.61
65738;BMP280;52478;51.844;6.582;2023-12-20T01:13:41;101187.34;;;21.50
65738;BMP280;52478;51.844;6.582;2023-12-20T01:16:10;101187.16;;;21.42
65738;BMP280;52478;51.844;6.582;2023-12-20T01:18:37;101185.16;;;21.37
65738;BMP280;52478;51.844;6.582;2023-12-20T01:21:04;101181.41;;;21.29
65738;BMP280;52478;51.844;6.582;2023-12-20T01:23:30;101179.88;;;21.28
65738;BMP280;52478;51.844;6.582;2023-12-20T01:25:57;101178.69;;;21.19
65738;BMP280;52478;51.844;6.582;2023-12-20T01:28:25;101176.19;;;21.15
65738;BMP280;52478;51.844;6.582;2023-12-20T01:30:51;101181.56;;;21.08
65738;BMP280;52478;51.844;6.582;2023-12-20T01:33:19;101175.72;;;21.06
65738;BMP280;52478;51.844;6.582;2023-12-20T01:35:45;101171.19;;;20.97
65738;BMP280;52478;51.844;6.582;2023-12-20T01:38:12;101171.44;;;20.94
65738;BMP280;52478;51.844;6.582;2023-12-20T01:40:38;101180.56;;;20.94
65738;BMP280;52478;51.844;6.582;2023-12-20T01:43:07;101181.34;;;20.89
65738;BMP280;52478;51.844;6.582;2023-12-20T01:45:34;101187.69;;;20.90
65738;BMP280;52478;51.844;6.582;2023-12-20T01:48:01;101185.91;;;20.87
65738;BMP280;52478;51.844;6.582;2023-12-20T01:50:29;101182.38;;;20.86
65738;BMP280;52478;51.844;6.582;2023-12-20T01:52:57;101184.16;;;20.84
65738;BMP280;52478;51.844;6.582;2023-12-20T01:55:25;101188.22;;;20.83
65738;BMP280;52478;51.844;6.582;2023-12-20T01:57:51;101184.44;;;20.80
65738;BMP280;52478;51.844;6.582;2023-12-20T02:00:18;101197.31;;;20.78
65738;BMP280;52478;51.844;6.582;2023-12-20T02:02:49;101199.88;;;20.76
65738;BMP280;52478;51.844;6.582;2023-12-20T02:05:16;101197.84;;;20.71
65738;BMP280;52478;51.844;6.582;2023-12-20T02:07:45;101189.75;;;20.73
65738;BMP280;52478;51.844;6.582;2023-12-20T02:10:11;101191.81;;;20.67
65738;BMP280;52478;51.844;6.582;2023-12-20T02:12:38;101192.06;;;20.63
65738;BMP280;52478;51.844;6.582;2023-12-20T02:15:05;101190.81;;;20.59
65738;BMP280;52478;51.844;6.582;2023-12-20T02:17:32;101193.88;;;20.55
65738;BMP280;52478;51.844;6.582;2023-12-20T02:19:59;101198.66;;;20.55
65738;BMP280;52478;51.844;6.582;2023-12-20T02:22:26;101199.94;;;20.54
65738;BMP280;52478;51.844;6.582;2023-12-20T02:24:53;101199.16;;;20.53
65738;BMP280;52478;51.844;6.582;2023-12-20T02:27:19;101194.13;;;20.52
65738;BMP280;52478;51.844;6.582;2023-12-20T02:29:47;101181.47;;;20.45
65738;BMP280;52478;51.844;6.582;2023-12-20T02:32:13;101187.56;;;20.44
65738;BMP280;52478;51.844;6.582;2023-12-20T02:34:40;101184.78;;;20.44
65738;BMP280;52478;51.844;6.582;2023-12-20T02:37:06;101199.69;;;20.41
65738;BMP280;52478;51.844;6.582;2023-12-20T02:39:34;101194.88;;;20.41
65738;BMP280;52478;51.844;6.582;2023-12-20T02:42:00;101195.16;;;20.43
65738;BMP280;52478;51.844;6.582;2023-12-20T02:44:27;101192.84;;;20.42
65738;BMP280;52478;51.844;6.582;2023-12-20T02:46:53;101183.00;;;20.41
65738;BMP280;52478;51.844;6.582;2023-12-20T02:49:20;101187.03;;;20.40
65738;BMP280;52478;51.844;6.582;2023-12-20T02:51:46;101172.91;;;20.38
65738;BMP280;52478;51.844;6.582;2023-12-20T02:54:13;101178.22;;;20.36
65738;BMP280;52478;51.844;6.582;2023-12-20T02:56:41;101175.44;;;20.30
65738;BMP280;52478;51.844;6.582;2023-12-20T02:59:07;101187.06;;;20.29
65738;BMP280;52478;51.844;6.582;2023-12-20T03:01:34;101175.22;;;20.23
65738;BMP280;52478;51.844;6.582;2023-12-20T03:04:01;101180.50;;;20.26
65738;BMP280;52478;51.844;6.582;2023-12-20T03:06:27;101178.50;;;20.27
65738;BMP280;52478;51.844;6.582;2023-12-20T03:08:54;101173.69;;;20.22
65738;BMP280;52478;51.844;6.582;2023-12-20T03:11:20;101166.88;;;20.23
65738;BMP280;52478;51.844;6.582;2023-12-20T03:13:48;101169.38;;;20.15
65738;BMP280;52478;51.844;6.582;2023-12-20T03:16:15;101164.09;;;20.12
65738;BMP280;52478;51.844;6.582;2023-12-20T03:18:42;101164.34;;;20.14
65738;BMP280;52478;51.844;6.582;2023-12-20T03:21:09;101158.78;;;20.14
65738;BMP280;52478;51.844;6.582;2023-12-20T03:23:35;101163.09;;;20.15
65738;BMP280;52478;51.844;6.582;2023-12-20T03:26:02;101167.13;;;20.14
65738;BMP280;52478;51.844;6.582;2023-12-20T03:28:29;101149.19;;;20.15
65738;BMP280;52478;51.844;6.582;2023-12-20T03:30:57;101158.53;;;20.12
65738;BMP280;52478;51.844;6.582;2023-12-20T03:33:23;101149.94;;;20.10
65738;BMP280;52478;51.844;6.582;2023-12-20T03:35:50;101154.00;;;20.09
65738;BMP280;52478;51.844;6.582;2023-12-20T03:38:16;101154.47;;;20.08
65738;BMP280;52478;51.844;6.582;2023-12-20T03:40:43;101149.44;;;20.06
65738;BMP280;52478;51.844;6.582;2023-12-20T03:43:09;101151.97;;;20.04
65738;BMP280;52478;51.844;6.582;2023-12-20T03:45:36;101148.69;;;20.06
65738;BMP280;52478;51.844;6.582;2023-12-20T03:48:04;101138.06;;;20.04
65738;BMP280;52478;51.844;6.582;2023-12-20T03:50:31;101139.09;;;20.01
65738;BMP280;52478;51.844;6.582;2023-12-20T03:52:57;101135.81;;;20.03
65738;BMP280;52478;51.844;6.582;2023-12-20T03:55:24;101127.22;;;20.06
65738;BMP280;52478;51.844;6.582;2023-12-20T03:57:50;101147.69;;;20.03
65738;BMP280;52478;51.844;6.582;2023-12-20T04:00:17;101138.31;;;20.06
65738;BMP280;52478;51.844;6.582;2023-12-20T04:02:44;101144.88;;;20.03
65738;BMP280;52478;51.844;6.582;2023-12-20T04:05:12;101144.88;;;19.92
65738;BMP280;52478;51.844;6.582;2023-12-20T04:07:38;101150.19;;;19.96
65738;BMP280;52478;51.844;6.582;2023-12-20T04:10:05;101142.84;;;20.04
65738;BMP280;52478;51.844;6.582;2023-12-20T04:12:32;101147.94;;;20.05
65738;BMP280;52478;51.844;6.582;2023-12-20T04:14:59;101139.34;;;20.03
65738;BMP280;52478;51.844;6.582;2023-12-20T04:17:25;101151.94;;;19.99
65738;BMP280;52478;51.844;6.582;2023-12-20T04:19:52;101146.69;;;19.90
65738;BMP280;52478;51.844;6.582;2023-12-20T04:22:19;101144.16;;;19.92
65738;BMP280;52478;51.844;6.582;2023-12-20T04:24:46;101148.69;;;19.89
65738;BMP280;52478;51.844;6.582;2023-12-20T04:27:12;101151.47;;;19.89
65738;BMP280;52478;51.844;6.582;2023-12-20T04:29:39;101149.19;;;19.93
65738;BMP280;52478;51.844;6.582;2023-12-20T04:32:06;101152.22;;;19.90
65738;BMP280;52478;51.844;6.582;2023-12-20T04:34:32;101161.06;;;19.88
65738;BMP280;52478;51.844;6.582;2023-12-20T04:36:59;101150.97;;;19.85
65738;BMP280;52478;51.844;6.582;2023-12-20T04:39:28;101150.47;;;19.81
65738;BMP280;52478;51.844;6.582;2023-12-20T04:41:55;101150.47;;;19.81
65738;BMP280;52478;51.844;6.582;2023-12-20T04:44:21;101154.50;;;19.80
65738;BMP280;52478;51.844;6.582;2023-12-20T04:46:48;101143.41;;;19.80
65738;BMP280;52478;51.844;6.582;2023-12-20T04:49:15;101138.59;;;19.81
65738;BMP280;52478;51.844;6.582;2023-12-20T04:51:41;101151.22;;;19.82
65738;BMP280;52478;51.844;6.582;2023-12-20T04:54:08;101153.75;;;19.80
65738;BMP280;52478;51.844;6.582;2023-12-20T04:56:37;101150.47;;;19.81
65738;BMP280;52478;51.844;6.582;2023-12-20T04:59:03;101155.53;;;19.77
65738;BMP280;52478;51.844;6.582;2023-12-20T05:01:30;101156.50;;;19.74
65738;BMP280;52478;51.844;6.582;2023-12-20T05:03:56;101155.00;;;19.73
65738;BMP280;52478;51.844;6.582;2023-12-20T05:06:22;101147.69;;;19.76
65738;BMP280;52478;51.844;6.582;2023-12-20T05:08:50;101150.44;;;19.70
65738;BMP280;52478;51.844;6.582;2023-12-20T05:11:16;101150.19;;;19.68
65738;BMP280;52478;51.844;6.582;2023-12-20T05:13:44;101143.63;;;19.66
65738;BMP280;52478;51.844;6.582;2023-12-20T05:16:10;101139.31;;;19.70
65738;BMP280;52478;51.844;6.582;2023-12-20T05:18:39;101122.66;;;19.70
65738;BMP280;52478;51.844;6.582;2023-12-20T05:21:05;101119.13;;;19.81
65738;BMP280;52478;51.844;6.582;2023-12-20T05:23:32;101127.72;;;19.88
65738;BMP280;52478;51.844;6.582;2023-12-20T05:25:58;101130.97;;;19.87
65738;BMP280;52478;51.844;6.582;2023-12-20T05:28:25;101136.53;;;19.87
65738;BMP280;52478;51.844;6.582;2023-12-20T05:30:53;101133.00;;;19.86
65738;BMP280;52478;51.844;6.582;2023-12-20T05:33:19;101139.34;;;19.81
65738;BMP280;52478;51.844;6.582;2023-12-20T05:35:46;101136.31;;;19.85
65738;BMP280;52478;51.844;6.582;2023-12-20T05:38:12;101145.44;;;19.85
65738;BMP280;52478;51.844;6.582;2023-12-20T05:40:39;101133.00;;;19.86
65738;BMP280;52478;51.844;6.582;2023-12-20T05:43:05;101135.06;;;19.86
65738;BMP280;52478;51.844;6.582;2023-12-20T05:45:32;101127.72;;;19.88
65738;BMP280;52478;51.844;6.582;2023-12-20T05:48:01;101126.44;;;19.89
65738;BMP280;52478;51.844;6.582;2023-12-20T05:50:27;101119.66;;;19.90
65738;BMP280;52478;51.844;6.582;2023-12-20T05:52:54;101126.69;;;19.91
65738;BMP280;52478;51.844;6.582;2023-12-20T05:55:20;101118.88;;;19.90
65738;BMP280;52478;51.844;6.582;2023-12-20T05:57:47;101130.25;;;19.92
65738;BMP280;52478;51.844;6.582;2023-12-20T06:00:14;101124.19;;;19.93
65738;BMP280;52478;51.844;6.582;2023-12-20T06:02:41;101134.06;;;19.94
65738;BMP280;52478;51.844;6.582;2023-12-20T06:05:09;101141.63;;;19.94
65738;BMP280;52478;51.844;6.582;2023-12-20T06:07:35;101134.78;;;20.00
65738;BMP280;52478;51.844;6.582;2023-12-20T06:10:02;101132.00;;;20.00
65738;BMP280;52478;51.844;6.582;2023-12-20T06:12:29;101135.78;;;19.97
65738;BMP280;52478;51.844;6.582;2023-12-20T06:14:57;101127.94;;;19.96
65738;BMP280;52478;51.844;6.582;2023-12-20T06:17:23;101130.25;;;20.03
65738;BMP280;52478;51.844;6.582;2023-12-20T06:19:50;101127.97;;;20.01
65738;BMP280;52478;51.844;6.582;2023-12-20T06:22:18;101132.25;;;20.02
65738;BMP280;52478;51.844;6.582;2023-12-20T06:24:44;101125.69;;;20.05
65738;BMP280;52478;51.844;6.582;2023-12-20T06:27:11;101142.38;;;20.05
65738;BMP280;52478;51.844;6.582;2023-12-20T06:29:37;101138.31;;;20.06
65738;BMP280;52478;51.844;6.582;2023-12-20T06:32:04;101134.03;;;20.11
65738;BMP280;52478;51.844;6.582;2023-12-20T06:34:30;101141.09;;;20.11
65738;BMP280;52478;51.844;6.582;2023-12-20T06:36:57;101131.25;;;20.11
65738;BMP280;52478;51.844;6.582;2023-12-20T06:39:25;101134.03;;;20.11
65738;BMP280;52478;51.844;6.582;2023-12-20T06:41:51;101130.25;;;20.08
65738;BMP280;52478;51.844;6.582;2023-12-20T06:44:18;101124.41;;;20.11
65738;BMP280;52478;51.844;6.582;2023-12-20T06:46:44;101122.66;;;20.14
65738;BMP280;52478;51.844;6.582;2023-12-20T06:49:11;101115.84;;;20.15
65738;BMP280;52478;51.844;6.582;2023-12-20T06:51:37;101120.09;;;20.21
65738;BMP280;52478;51.844;6.582;2023-12-20T06:54:04;101125.69;;;20.27
65738;BMP280;52478;51.844;6.582;2023-12-20T06:56:32;101124.63;;;20.30
65738;BMP280;52478;51.844;6.582;2023-12-20T06:58:58;101117.28;;;20.32
65738;BMP280;52478;51.844;6.582;2023-12-20T07:01:25;101103.16;;;20.25
65738;BMP280;52478;51.844;6.582;2023-12-20T07:03:51;101107.69;;;20.33
65738;BMP280;52478;51.844;6.582;2023-12-20T07:06:18;101115.78;;;20.37
65738;BMP280;52478;51.844;6.582;2023-12-20T07:08:45;101110.97;;;20.37
65738;BMP280;52478;51.844;6.582;2023-12-20T07:11:12;101113.25;;;20.39
65738;BMP280;52478;51.844;6.582;2023-12-20T07:13:40;101116.78;;;20.39
65738;BMP280;52478;51.844;6.582;2023-12-20T07:16:06;101107.94;;;20.41
65738;BMP280;52478;51.844;6.582;2023-12-20T07:18:33;101113.50;;;20.41
65738;BMP280;52478;51.844;6.582;2023-12-20T07:20:59;101108.19;;;20.43
65738;BMP280;52478;51.844;6.582;2023-12-20T07:23:25;101103.38;;;20.38
65738;BMP280;52478;51.844;6.582;2023-12-20T07:25:52;101102.88;;;20.45
65738;BMP280;52478;51.844;6.582;2023-12-20T07:28:18;101110.72;;;20.46
65738;BMP280;52478;51.844;6.582;2023-12-20T07:30:47;101108.66;;;20.47
65738;BMP280;52478;51.844;6.582;2023-12-20T07:33:13;101115.75;;;20.48
65738;BMP280;52478;51.844;6.582;2023-12-20T07:35:39;101110.19;;;20.48
65738;BMP280;52478;51.844;6.582;2023-12-20T07:38:06;101115.22;;;20.49
65738;BMP280;52478;51.844;6.582;2023-12-20T07:40:32;101116.00;;;20.50
65738;BMP280;52478;51.844;6.582;2023-12-20T07:42:59;101112.44;;;20.49
65738;BMP280;52478;51.844;6.582;2023-12-20T07:45:25;101111.19;;;20.50
65738;BMP280;52478;51.844;6.582;2023-12-20T07:47:53;101116.75;;;20.50
65738;BMP280;52478;51.844;6.582;2023-12-20T07:50:20;101109.16;;;20.51
65738;BMP280;52478;51.844;6.582;2023-12-20T07:52:46;101111.94;;;20.51
65738;BMP280;52478;51.844;6.582;2023-12-20T07:55:13;101108.66;;;20.52
65738;BMP280;52478;51.844;6.582;2023-12-20T07:57:39;101106.59;;;20.53
65738;BMP280;52478;51.844;6.582;2023-12-20T08:00:07;101109.38;;;20.53
65738;BMP280;52478;51.844;6.582;2023-12-20T08:02:33;101113.72;;;20.54
65738;BMP280;52478;51.844;6.582;2023-12-20T08:05:01;101109.38;;;20.53
65738;BMP280;52478;51.844;6.582;2023-12-20T08:07:27;101104.59;;;20.53
65738;BMP280;52478;51.844;6.582;2023-12-20T08:09:54;101107.16;;;20.51
65738;BMP280;52478;51.844;6.582;2023-12-20T08:12:22;101109.16;;;20.51
65738;BMP280;52478;51.844;6.582;2023-12-20T08:14:48;101110.16;;;20.53
65738;BMP280;52478;51.844;6.582;2023-12-20T08:17:15;101120.50;;;20.53
65738;BMP280;52478;51.844;6.582;2023-12-20T08:19:44;101114.19;;;20.52
65738;BMP280;52478;51.844;6.582;2023-12-20T08:22:12;101121.28;;;20.53
65738;BMP280;52478;51.844;6.582;2023-12-20T08:24:38;101113.47;;;20.52
65738;BMP280;52478;51.844;6.582;2023-12-20T08:27:05;101120.50;;;20.53
65738;BMP280;52478;51.844;6.582;2023-12-20T08:29:31;101117.72;;;20.53
65738;BMP280;52478;51.844;6.582;2023-12-20T08:31:57;101126.06;;;20.53
65738;BMP280;52478;51.844;6.582;2023-12-20T08:34:24;101122.06;;;20.54
65738;BMP280;52478;51.844;6.582;2023-12-20T08:36:50;101125.56;;;20.54
65738;BMP280;52478;51.844;6.582;2023-12-20T08:39:18;101127.63;;;20.54
65738;BMP280;52478;51.844;6.582;2023-12-20T08:41:45;101124.84;;;20.54
65738;BMP280;52478;51.844;6.582;2023-12-20T08:44:11;101122.06;;;20.54
65738;BMP280;52478;51.844;6.582;2023-12-20T08:46:38;101123.56;;;20.55
65738;BMP280;52478;51.844;6.582;2023-12-20T08:49:04;101118.00;;;20.55
65738;BMP280;52478;51.844;6.582;2023-12-20T08:51:31;101112.44;;;20.55
65738;BMP280;52478;51.844;6.582;2023-12-20T08:53:58;101113.97;;;20.56
65738;BMP280;52478;51.844;6.582;2023-12-20T08:56:26;101095.75;;;20.55
65738;BMP280;52478;51.844;6.582;2023-12-20T08:58:53;101095.75;;;20.55
65738;BMP280;52478;51.844;6.582;2023-12-20T09:01:19;101094.97;;;20.54
65738;BMP280;52478;51.844;6.582;2023-12-20T09:03:45;101101.31;;;20.55
65738;BMP280;52478;51.844;6.582;2023-12-20T09:06:12;101101.31;;;20.55
65738;BMP280;52478;51.844;6.582;2023-12-20T09:08:38;101095.75;;;20.55
65738;BMP280;52478;51.844;6.582;2023-12-20T09:11:05;101094.97;;;20.54
65738;BMP280;52478;51.844;6.582;2023-12-20T09:13:33;101095.75;;;20.55
65738;BMP280;52478;51.844;6.582;2023-12-20T09:16:00;101101.31;;;20.55
65738;BMP280;52478;51.844;6.582;2023-12-20T09:18:26;101090.19;;;20.55
65738;BMP280;52478;51.844;6.582;2023-12-20T09:20:52;101090.19;;;20.55
65738;BMP280;52478;51.844;6.582;2023-12-20T09:23:19;101087.41;;;20.55
65738;BMP280;52478;51.844;6.582;2023-12-20T09:25:45;101086.63;;;20.54
65738;BMP280;52478;51.844;6.582;2023-12-20T09:28:12;101089.41;;;20.54
65738;BMP280;52478;51.844;6.582;2023-12-20T09:30:40;101083.13;;;20.54
65738;BMP280;52478;51.844;6.582;2023-12-20T09:33:06;101094.97;;;20.54
65738;BMP280;52478;51.844;6.582;2023-12-20T09:35:33;101094.25;;;20.54
65738;BMP280;52478;51.844;6.582;2023-12-20T09:37:59;101092.69;;;20.53
65738;BMP280;52478;51.844;6.582;2023-12-20T09:40:26;101087.91;;;20.53
65738;BMP280;52478;51.844;6.582;2023-12-20T09:42:56;101098.25;;;20.53
65738;BMP280;52478;51.844;6.582;2023-12-20T09:45:23;101101.03;;;20.53
65738;BMP280;52478;51.844;6.582;2023-12-20T09:47:52;101100.28;;;20.52
65738;BMP280;52478;51.844;6.582;2023-12-20T09:50:20;101105.38;;;20.54
65738;BMP280;52478;51.844;6.582;2023-12-20T09:52:50;101098.25;;;20.53
65738;BMP280;52478;51.844;6.582;2023-12-20T09:55:17;101102.59;;;20.54
65738;BMP280;52478;51.844;6.582;2023-12-20T09:57:43;101105.88;;;20.52
65738;BMP280;52478;51.844;6.582;2023-12-20T10:00:11;101103.06;;;20.52
65738;BMP280;52478;51.844;6.582;2023-12-20T10:02:38;101098.81;;;20.51
65738;BMP280;52478;51.844;6.582;2023-12-20T10:05:15;101107.91;;;20.52
65738;BMP280;52478;51.844;6.582;2023-12-20T10:07:44;101108.66;;;20.52
65738;BMP280;52478;51.844;6.582;2023-12-20T10:10:12;101103.81;;;20.53
65738;BMP280;52478;51.844;6.582;2023-12-20T10:12:39;101107.91;;;20.52
65738;BMP280;52478;51.844;6.582;2023-12-20T10:15:06;101103.81;;;20.53
65738;BMP280;52478;51.844;6.582;2023-12-20T10:17:33;101098.03;;;20.51
65738;BMP280;52478;51.844;6.582;2023-12-20T10:19:59;101095.25;;;20.51
65738;BMP280;52478;51.844;6.582;2023-12-20T10:22:28;101088.94;;;20.50
65738;BMP280;52478;51.844;6.582;2023-12-20T10:24:56;101096.03;;;20.51
65738;BMP280;52478;51.844;6.582;2023-12-20T10:27:22;101096.03;;;20.51
65738;BMP280;52478;51.844;6.582;2023-12-20T10:29:49;101096.03;;;20.51
65738;BMP280;52478;51.844;6.582;2023-12-20T10:32:22;101085.66;;;20.52
65738;BMP280;52478;51.844;6.582;2023-12-20T10:34:49;101085.66;;;20.52
65738;BMP280;52478;51.844;6.582;2023-12-20T10:37:16;101085.66;;;20.52
65738;BMP280;52478;51.844;6.582;2023-12-20T10:39:47;101093.47;;;20.53
65738;BMP280;52478;51.844;6.582;2023-12-20T10:42:16;101080.09;;;20.52
65738;BMP280;52478;51.844;6.582;2023-12-20T10:44:42;101089.91;;;20.53
65738;BMP280;52478;51.844;6.582;2023-12-20T10:47:09;101102.34;;;20.52
65738;BMP280;52478;51.844;6.582;2023-12-20T10:49:39;101094.72;;;20.52
65738;BMP280;52478;51.844;6.582;2023-12-20T10:52:07;101080.84;;;20.52
65738;BMP280;52478;51.844;6.582;2023-12-20T10:54:35;101075.78;;;20.51
65738;BMP280;52478;51.844;6.582;2023-12-20T10:57:05;101082.13;;;20.51
65738;BMP280;52478;51.844;6.582;2023-12-20T10:59:33;101077.56;;;20.48
65738;BMP280;52478;51.844;6.582;2023-12-20T11:02:01;101084.91;;;20.51
65738;BMP280;52478;51.844;6.582;2023-12-20T11:04:36;101084.13;;;20.51
65738;BMP280;52478;51.844;6.582;2023-12-20T11:07:10;101085.66;;;20.52
65738;BMP280;52478;51.844;6.582;2023-12-20T11:09:43;101081.34;;;20.51
65738;BMP280;52478;51.844;6.582;2023-12-20T11:12:17;101078.09;;;20.47
65738;BMP280;52478;51.844;6.582;2023-12-20T11:14:46;101073.78;;;20.51
65738;BMP280;52478;51.844;6.582;2023-12-20T11:17:13;101072.25;;;20.50
65738;BMP280;52478;51.844;6.582;2023-12-20T11:20:04;101073.00;;;20.51
65738;BMP280;52478;51.844;6.582;2023-12-20T11:22:32;101061.13;;;20.50
65738;BMP280;52478;51.844;6.582;2023-12-20T11:25:03;101061.13;;;20.50
65738;BMP280;52478;51.844;6.582;2023-12-20T11:27:31;101061.88;;;20.51
65738;BMP280;52478;51.844;6.582;2023-12-20T11:29:58;101057.59;;;20.50
65738;BMP280;52478;51.844;6.582;2023-12-20T11:32:29;101058.84;;;20.49
65738;BMP280;52478;51.844;6.582;2023-12-20T11:34:56;101059.59;;;20.49
65738;BMP280;52478;51.844;6.582;2023-12-20T11:37:28;101054.81;;;20.50
65738;BMP280;52478;51.844;6.582;2023-12-20T11:40:00;101057.34;;;20.48
65738;BMP280;52478;51.844;6.582;2023-12-20T11:42:27;101044.44;;;20.50
65738;BMP280;52478;51.844;6.582;2023-12-20T11:44:55;101032.56;;;20.50
65738;BMP280;52478;51.844;6.582;2023-12-20T11:47:22;101035.34;;;20.50
65738;BMP280;52478;51.844;6.582;2023-12-20T11:49:49;101036.09;;;20.50
65738;BMP280;52478;51.844;6.582;2023-12-20T11:52:16;101031.28;;;20.51
65738;BMP280;52478;51.844;6.582;2023-12-20T11:54:42;101035.34;;;20.50
65738;BMP280;52478;51.844;6.582;2023-12-20T11:57:09;101029.78;;;20.50
65738;BMP280;52478;51.844;6.582;2023-12-20T11:59:36;101018.41;;;20.48
65738;BMP280;52478;51.844;6.582;2023-12-20T12:02:04;101027.00;;;20.50
65738;BMP280;52478;51.844;6.582;2023-12-20T12:04:30;101029.28;;;20.51
65738;BMP280;52478;51.844;6.582;2023-12-20T12:06:57;101035.59;;;20.52
65738;BMP280;52478;51.844;6.582;2023-12-20T12:09:23;101028.50;;;20.51
65738;BMP280;52478;51.844;6.582;2023-12-20T12:11:50;101027.75;;;20.50
65738;BMP280;52478;51.844;6.582;2023-12-20T12:14:16;101024.47;;;20.52
65738;BMP280;52478;51.844;6.582;2023-12-20T12:16:44;101017.88;;;20.55
65738;BMP280;52478;51.844;6.582;2023-12-20T12:19:21;101008.03;;;20.54
65738;BMP280;52478;51.844;6.582;2023-12-20T12:21:48;101009.25;;;20.53
65738;BMP280;52478;51.844;6.582;2023-12-20T12:24:15;101017.59;;;20.53
65738;BMP280;52478;51.844;6.582;2023-12-20T12:26:41;101019.16;;;20.54
65738;BMP280;52478;51.844;6.582;2023-12-20T12:29:08;101011.56;;;20.54
65738;BMP280;52478;51.844;6.582;2023-12-20T12:31:34;101008.78;;;20.54
65738;BMP280;52478;51.844;6.582;2023-12-20T12:34:01;101013.34;;;20.52
65738;BMP280;52478;51.844;6.582;2023-12-20T12:36:29;100999.69;;;20.54
65738;BMP280;52478;51.844;6.582;2023-12-20T12:38:56;101000.91;;;20.53
65738;BMP280;52478;51.844;6.582;2023-12-20T12:41:23;100999.69;;;20.54
65738;BMP280;52478;51.844;6.582;2023-12-20T12:43:49;101010.81;;;20.54
65738;BMP280;52478;51.844;6.582;2023-12-20T12:46:16;100999.94;;;20.56
65738;BMP280;52478;51.844;6.582;2023-12-20T12:48:42;100994.38;;;20.56
65738;BMP280;52478;51.844;6.582;2023-12-20T12:51:09;100981.94;;;20.57
65738;BMP280;52478;51.844;6.582;2023-12-20T12:53:39;100979.16;;;20.57
65738;BMP280;52478;51.844;6.582;2023-12-20T12:56:06;100971.59;;;20.57
65738;BMP280;52478;51.844;6.582;2023-12-20T12:58:33;100953.66;;;20.53
65738;BMP280;52478;51.844;6.582;2023-12-20T13:01:00;100960.47;;;20.57
65738;BMP280;52478;51.844;6.582;2023-12-20T13:03:26;100958.22;;;20.56
65738;BMP280;52478;51.844;6.582;2023-12-20T13:05:52;100961.72;;;20.56
65738;BMP280;52478;51.844;6.582;2023-12-20T13:08:20;100971.59;;;20.57
65738;BMP280;52478;51.844;6.582;2023-12-20T13:10:48;100969.56;;;20.58
65738;BMP280;52478;51.844;6.582;2023-12-20T13:13:14;100971.09;;;20.59
65738;BMP280;52478;51.844;6.582;2023-12-20T13:15:41;100961.22;;;20.58
65738;BMP280;52478;51.844;6.582;2023-12-20T13:18:07;100961.97;;;20.58
65738;BMP280;52478;51.844;6.582;2023-12-20T13:20:34;100944.53;;;20.58
65738;BMP280;52478;51.844;6.582;2023-12-20T13:23:00;100945.56;;;20.55
65738;BMP280;52478;51.844;6.582;2023-12-20T13:25:26;100939.53;;;20.51
65738;BMP280;52478;51.844;6.582;2023-12-20T13:27:54;100942.06;;;20.49
65738;BMP280;52478;51.844;6.582;2023-12-20T13:30:21;100943.09;;;20.46
65738;BMP280;52478;51.844;6.582;2023-12-20T13:32:48;100941.84;;;20.41
65738;BMP280;52478;51.844;6.582;2023-12-20T13:35:15;100929.00;;;20.38
65738;BMP280;52478;51.844;6.582;2023-12-20T13:37:42;100933.00;;;20.43
65738;BMP280;52478;51.844;6.582;2023-12-20T13:40:10;100926.41;;;20.46
65738;BMP280;52478;51.844;6.582;2023-12-20T13:42:37;100935.00;;;20.48
65738;BMP280;52478;51.844;6.582;2023-12-20T13:45:07;100917.78;;;20.49
65738;BMP280;52478;51.844;6.582;2023-12-20T13:47:35;100922.06;;;20.50
65738;BMP280;52478;51.844;6.582;2023-12-20T13:50:02;100925.84;;;20.53
65738;BMP280;52478;51.844;6.582;2023-12-20T13:52:29;100921.81;;;20.54
65738;BMP280;52478;51.844;6.582;2023-12-20T13:54:55;100922.56;;;20.54